FYOW

Otjiwarongo Airport

Otjiwarongo, Namibia
METAR FYOW 212200Z AUTO 00000KT //// // ////// 16/09 Q1021
Observed Flight Rules
Apr-21 @ 22:00 UTC (an hour ago)
Temperatures Readings
Current 16°C / 61°F
Dewpoint 9°C / 48°F
Humidity 63%
Altimeter 30.15" Hg
Pressure 1021 hPa
Elevation 1481
METAR FYOW 212200Z AUTO 00000KT //// // ////// 16/09 Q1021
Observed Flight Rules
Apr-21 @ 22:00 UTC
(an hour ago)
Temperature Dewpoint
16°C / 61°F 9°C / 48°F
Humidity Altimeter Pressure
63% 30.15" Hg 1021 hPa